createdAt,value
2023-07-03T00:00:19.170Z,922.05
2023-07-03T00:02:48.573Z,835.78
2023-07-03T00:05:16.349Z,487.60
2023-07-03T00:07:44.538Z,525.10
2023-07-03T00:10:13.182Z,491.30
2023-07-03T00:12:42.164Z,478.65
2023-07-03T00:15:10.164Z,487.35
2023-07-03T00:17:40.305Z,436.75
2023-07-03T00:20:12.673Z,423.05
2023-07-03T00:22:39.965Z,487.73
2023-07-03T00:25:08.052Z,427.90
2023-07-03T00:27:35.353Z,457.20
2023-07-03T00:30:02.770Z,419.25
2023-07-03T00:32:30.190Z,421.90
2023-07-03T00:34:57.468Z,421.08
2023-07-03T00:37:24.864Z,478.83
2023-07-03T00:39:52.134Z,511.23
2023-07-03T00:42:19.380Z,479.45
2023-07-03T00:44:46.804Z,458.20
2023-07-03T00:47:14.126Z,475.60
2023-07-03T00:49:41.358Z,538.40
2023-07-03T00:52:09.420Z,508.80
2023-07-03T00:54:36.698Z,531.83
2023-07-03T00:57:04.334Z,420.40
2023-07-03T00:59:31.772Z,460.33
2023-07-03T01:02:20.194Z,492.05
2023-07-03T01:05:05.332Z,503.95
2023-07-03T01:07:34.929Z,489.08
2023-07-03T01:10:05.910Z,481.67
2023-07-03T01:12:36.049Z,448.40
2023-07-03T01:15:05.772Z,460.33
2023-07-03T01:17:33.865Z,481.05
2023-07-03T01:20:02.188Z,542.83
2023-07-03T01:22:29.575Z,503.15
2023-07-03T01:25:00.172Z,513.20
2023-07-03T01:27:32.740Z,510.60
2023-07-03T01:30:00.601Z,454.58
2023-07-03T01:32:29.846Z,540.28
2023-07-03T01:34:58.079Z,523.47
2023-07-03T01:37:27.623Z,548.00
2023-07-03T01:39:55.845Z,519.60
2023-07-03T01:42:24.056Z,572.03
2023-07-03T01:44:51.347Z,585.03
2023-07-03T01:47:19.020Z,596.08
2023-07-03T01:49:46.402Z,612.72
2023-07-03T01:52:13.703Z,635.13
2023-07-03T01:54:45.857Z,677.10
2023-07-03T01:57:14.947Z,612.13
2023-07-03T01:59:43.018Z,706.88
2023-07-03T02:02:24.576Z,741.53
2023-07-03T02:05:00.683Z,879.35
2023-07-03T02:07:31.130Z,632.28
2023-07-03T02:10:01.712Z,584.85
2023-07-03T02:12:29.041Z,556.30
2023-07-03T02:14:56.717Z,644.40
2023-07-03T02:17:24.061Z,652.42
2023-07-03T02:19:51.819Z,595.08
2023-07-03T02:22:19.111Z,610.22
2023-07-03T02:24:46.352Z,634.55
2023-07-03T02:27:13.598Z,633.33
2023-07-03T02:29:41.055Z,614.15
2023-07-03T02:32:13.414Z,776.40
2023-07-03T02:34:40.812Z,844.70
2023-07-03T02:37:11.137Z,626.72
2023-07-03T02:39:38.454Z,505.55
2023-07-03T02:42:05.943Z,507.70
2023-07-03T02:44:42.157Z,458.52
2023-07-03T02:47:09.485Z,418.10
2023-07-03T02:49:36.882Z,452.55
2023-07-03T02:52:04.334Z,391.88
2023-07-03T02:54:31.640Z,459.30
2023-07-03T02:56:58.899Z,499.02
2023-07-03T02:59:26.279Z,485.30
2023-07-03T03:01:54.382Z,436.33
2023-07-03T03:04:22.001Z,468.98
2023-07-03T03:06:50.707Z,411.17
2023-07-03T03:09:19.299Z,410.65
2023-07-03T03:11:46.542Z,409.27
2023-07-03T03:14:14.396Z,422.52
2023-07-03T03:16:41.886Z,387.25
2023-07-03T03:19:09.239Z,319.40
2023-07-03T03:21:36.533Z,357.02
2023-07-03T03:24:04.430Z,342.75
2023-07-03T03:26:32.334Z,376.40
2023-07-03T03:28:59.678Z,335.45
2023-07-03T03:31:27.119Z,366.90
2023-07-03T03:33:54.548Z,294.23
2023-07-03T03:36:21.855Z,283.30
2023-07-03T03:38:49.339Z,284.30
2023-07-03T03:41:16.632Z,233.77
2023-07-03T03:43:43.993Z,254.07
2023-07-03T03:46:13.303Z,250.32
2023-07-03T03:48:40.680Z,298.77
2023-07-03T03:51:08.073Z,325.67
2023-07-03T03:53:35.342Z,257.27
2023-07-03T03:56:02.662Z,283.45
2023-07-03T03:58:30.275Z,323.08
2023-07-03T04:00:57.492Z,310.00
2023-07-03T04:03:24.983Z,337.42
2023-07-03T04:05:52.609Z,350.58
2023-07-03T04:08:20.086Z,369.17
2023-07-03T04:10:47.383Z,363.75
2023-07-03T04:13:14.857Z,367.17
2023-07-03T04:15:56.083Z,360.95
2023-07-03T04:18:24.525Z,380.67
2023-07-03T04:20:52.445Z,401.80
2023-07-03T04:23:19.666Z,375.73
2023-07-03T04:25:47.366Z,379.83
2023-07-03T04:28:15.023Z,382.80
2023-07-03T04:30:42.523Z,379.13
2023-07-03T04:33:10.028Z,357.52
2023-07-03T04:35:40.476Z,336.17
2023-07-03T04:38:08.216Z,369.05
2023-07-03T04:40:36.013Z,356.42
2023-07-03T04:43:04.546Z,305.48
2023-07-03T04:45:32.696Z,356.67
2023-07-03T04:48:00.090Z,306.35
2023-07-03T04:50:27.311Z,316.33
2023-07-03T04:52:57.427Z,327.98
2023-07-03T04:55:26.278Z,363.20
2023-07-03T04:57:53.426Z,319.80
2023-07-03T05:00:21.024Z,354.52
2023-07-03T05:02:49.503Z,305.70
2023-07-03T05:05:17.437Z,322.65
2023-07-03T05:07:45.775Z,350.85
2023-07-03T05:10:14.245Z,310.48
2023-07-03T05:12:41.396Z,294.30
2023-07-03T05:15:09.559Z,302.73
2023-07-03T05:17:39.836Z,297.83
2023-07-03T05:20:10.131Z,357.33
2023-07-03T05:22:41.517Z,320.00
2023-07-03T05:25:15.527Z,286.77
2023-07-03T05:27:43.037Z,330.05
2023-07-03T05:30:13.620Z,381.45
2023-07-03T05:32:41.111Z,336.65
2023-07-03T05:35:09.069Z,360.50
2023-07-03T05:37:39.825Z,375.85
2023-07-03T05:40:08.420Z,345.67
2023-07-03T05:42:36.357Z,340.25
2023-07-03T05:45:04.197Z,357.33
2023-07-03T05:47:31.722Z,347.10
2023-07-03T05:49:59.310Z,361.63
2023-07-03T05:52:26.681Z,406.95
2023-07-03T05:54:54.365Z,382.67
2023-07-03T05:57:34.952Z,373.30
2023-07-03T06:00:02.346Z,407.15
2023-07-03T06:02:32.742Z,379.50
2023-07-03T06:05:00.193Z,313.20
2023-07-03T06:07:33.097Z,350.15
2023-07-03T06:12:30.746Z,278.02
2023-07-03T06:15:02.314Z,964.88
2023-07-03T06:17:30.859Z,927.33
2023-07-03T06:19:58.237Z,616.72
2023-07-03T06:22:28.155Z,509.40
2023-07-03T06:25:17.622Z,429.92
2023-07-03T06:27:56.635Z,430.33
2023-07-03T06:30:26.359Z,462.48
2023-07-03T06:32:53.716Z,429.70
2023-07-03T06:35:34.842Z,448.05
2023-07-03T06:38:04.449Z,481.52
2023-07-03T06:40:39.972Z,543.05
2023-07-03T06:43:10.221Z,434.65
2023-07-03T06:45:49.603Z,417.75
2023-07-03T06:48:17.309Z,484.92
2023-07-03T06:50:46.089Z,370.45
2023-07-03T06:53:13.938Z,522.63
2023-07-03T06:55:41.367Z,493.00
2023-07-03T06:58:08.712Z,517.85
2023-07-03T07:00:37.512Z,523.63
2023-07-03T07:03:05.095Z,301.70
2023-07-03T07:05:32.660Z,360.83
2023-07-03T07:07:59.934Z,340.02
2023-07-03T07:10:27.581Z,345.17
2023-07-03T07:12:55.031Z,277.65
2023-07-03T07:15:22.549Z,338.10
2023-07-03T07:17:52.156Z,321.38
2023-07-03T07:20:19.996Z,470.05
2023-07-03T07:22:47.390Z,424.92
2023-07-03T07:25:14.962Z,451.20
2023-07-03T07:27:42.389Z,377.27
2023-07-03T07:30:10.215Z,319.67
2023-07-03T07:32:37.848Z,276.48
2023-07-03T07:35:07.044Z,234.80
2023-07-03T07:37:34.444Z,280.75
2023-07-03T07:40:02.157Z,244.20
2023-07-03T07:42:30.581Z,148.95
2023-07-03T07:45:02.387Z,191.30
2023-07-03T07:47:30.572Z,148.50
2023-07-03T07:49:59.393Z,179.90
2023-07-03T07:52:26.952Z,172.77
2023-07-03T07:54:58.133Z,137.13
2023-07-03T07:57:28.334Z,169.10
2023-07-03T07:59:55.605Z,173.15
2023-07-03T08:02:23.510Z,164.25
2023-07-03T08:04:51.426Z,148.93
2023-07-03T08:07:18.947Z,156.88
2023-07-03T08:09:48.396Z,172.00
2023-07-03T08:12:19.728Z,183.73
2023-07-03T08:14:47.228Z,175.68
2023-07-03T08:17:14.987Z,176.93
2023-07-03T08:19:42.471Z,165.00
2023-07-03T08:22:12.229Z,161.13
2023-07-03T08:24:51.664Z,199.00
2023-07-03T08:27:23.406Z,150.40
2023-07-03T08:29:58.804Z,144.43
2023-07-03T08:32:26.333Z,185.95
2023-07-03T08:37:24.342Z,171.68
2023-07-03T08:39:54.672Z,130.07
2023-07-03T08:42:50.940Z,153.18
2023-07-03T08:45:26.702Z,141.25
2023-07-03T08:47:56.159Z,118.40
2023-07-03T08:50:36.573Z,142.10
2023-07-03T08:53:05.983Z,112.18
2023-07-03T08:55:38.277Z,140.18
2023-07-03T08:58:05.764Z,139.88
2023-07-03T09:00:37.962Z,119.45
2023-07-03T09:03:23.305Z,129.57
2023-07-03T09:06:23.103Z,113.00
2023-07-03T09:08:55.770Z,124.50
2023-07-03T09:13:54.590Z,162.88
2023-07-03T09:16:23.749Z,126.75
2023-07-03T09:18:53.462Z,141.98
2023-07-03T09:21:23.942Z,125.47
2023-07-03T09:24:09.175Z,120.50
2023-07-03T09:27:05.782Z,125.43
2023-07-03T09:29:34.049Z,151.38
2023-07-03T09:32:01.519Z,110.95
2023-07-03T09:34:34.059Z,144.07
2023-07-03T09:37:05.410Z,136.95
2023-07-03T09:39:33.152Z,95.82
2023-07-03T09:42:15.794Z,123.82
2023-07-03T09:44:55.208Z,91.55
2023-07-03T09:47:32.391Z,108.25
2023-07-03T09:50:10.031Z,158.68
2023-07-03T09:52:59.459Z,161.20
2023-07-03T09:55:37.264Z,134.52
2023-07-03T09:58:12.682Z,133.07
2023-07-03T10:00:50.460Z,130.57
2023-07-03T10:08:30.877Z,91.88
2023-07-03T10:13:43.824Z,169.93
2023-07-03T10:16:12.470Z,128.57
2023-07-03T10:18:40.761Z,102.80
2023-07-03T10:21:12.520Z,129.63
2023-07-03T10:23:52.981Z,132.37
2023-07-03T10:26:23.986Z,88.47
2023-07-03T10:29:20.821Z,90.78
2023-07-03T10:32:17.199Z,96.60
2023-07-03T10:34:55.208Z,107.53
2023-07-03T10:37:34.571Z,125.75
2023-07-03T10:40:16.650Z,96.55
2023-07-03T10:42:47.263Z,115.80
2023-07-03T10:45:18.273Z,89.68
2023-07-03T10:47:52.314Z,111.35
2023-07-03T10:50:25.336Z,77.47
2023-07-03T10:53:16.033Z,99.75
2023-07-03T10:55:53.089Z,96.90
2023-07-03T10:58:37.066Z,111.80
2023-07-03T11:01:07.838Z,65.07
2023-07-03T11:03:41.285Z,74.38
2023-07-03T11:06:31.265Z,108.85
2023-07-03T11:09:17.568Z,72.45
2023-07-03T11:28:31.173Z,88.50
2023-07-03T11:31:00.645Z,71.03
2023-07-03T11:44:47.053Z,75.80
2023-07-03T11:47:16.146Z,53.88
2023-07-03T11:50:00.581Z,92.97
2023-07-03T11:52:29.803Z,58.70
2023-07-03T11:55:03.388Z,57.95
2023-07-03T11:57:36.835Z,56.45
2023-07-03T12:00:19.742Z,26.17
2023-07-03T12:02:54.700Z,31.77
2023-07-03T12:05:40.991Z,48.30
2023-07-03T12:08:12.256Z,67.55
2023-07-03T12:10:41.455Z,42.22
2023-07-03T12:14:02.964Z,54.53
2023-07-03T12:16:32.303Z,32.50
2023-07-03T12:19:06.773Z,41.63
2023-07-03T12:22:31.127Z,45.88
2023-07-03T12:25:08.767Z,59.65
2023-07-03T12:27:40.268Z,58.75
2023-07-03T12:30:12.878Z,67.68
2023-07-03T12:35:21.332Z,31.05
2023-07-03T12:37:51.780Z,34.95
2023-07-03T12:40:22.079Z,68.22
2023-07-03T12:42:54.313Z,117.55
2023-07-03T12:48:26.268Z,111.75
2023-07-03T12:51:08.126Z,92.65
2023-07-03T12:53:38.953Z,139.32
2023-07-03T12:56:10.969Z,171.65
2023-07-03T12:58:38.820Z,275.77
2023-07-03T13:01:07.775Z,380.00
2023-07-03T13:03:40.095Z,429.27
2023-07-03T13:08:43.096Z,1039.97
2023-07-03T13:11:23.567Z,629.72
2023-07-03T13:14:10.217Z,1009.40
2023-07-03T13:16:37.848Z,574.35
2023-07-03T13:19:06.770Z,589.28
2023-07-03T13:21:39.545Z,742.30
2023-07-03T13:24:18.396Z,326.60
2023-07-03T13:26:52.398Z,505.23
2023-07-03T13:29:27.308Z,309.52
2023-07-03T13:32:05.621Z,543.85
2023-07-03T13:37:14.276Z,484.58
2023-07-03T13:39:49.489Z,439.48
2023-07-03T13:42:23.293Z,489.20
2023-07-03T13:44:50.776Z,525.50
2023-07-03T13:47:29.223Z,436.27
2023-07-03T13:49:57.482Z,494.95
2023-07-03T13:52:28.852Z,410.92
2023-07-03T13:54:56.361Z,449.77
2023-07-03T13:57:23.942Z,458.35
2023-07-03T13:59:51.329Z,499.95
2023-07-03T14:02:28.968Z,370.58
2023-07-03T14:05:02.329Z,340.42
2023-07-03T14:07:41.332Z,393.25
2023-07-03T14:10:10.618Z,299.52
2023-07-03T14:12:42.415Z,291.38
2023-07-03T14:15:17.414Z,323.23
2023-07-03T14:17:50.574Z,349.13
2023-07-03T14:20:17.963Z,366.17
2023-07-03T14:22:45.251Z,307.63
2023-07-03T14:25:14.459Z,284.08
2023-07-03T14:27:42.267Z,315.10
2023-07-03T14:30:10.616Z,312.27
2023-07-03T14:32:51.523Z,301.90
2023-07-03T14:35:23.281Z,301.80
2023-07-03T14:37:50.512Z,257.27
2023-07-03T14:40:17.859Z,269.42
2023-07-03T14:42:45.546Z,310.80
2023-07-03T14:45:12.989Z,331.63
2023-07-03T14:47:41.080Z,281.50
2023-07-03T14:50:08.878Z,303.58
2023-07-03T14:52:43.473Z,274.80
2023-07-03T14:55:11.703Z,242.68
2023-07-03T14:57:39.070Z,235.52
2023-07-03T15:00:08.361Z,280.60
2023-07-03T15:02:37.837Z,228.98
2023-07-03T15:05:12.865Z,263.27
2023-07-03T15:07:40.272Z,329.60
2023-07-03T15:10:07.860Z,335.45
2023-07-03T15:12:35.129Z,340.40
2023-07-03T15:15:02.517Z,332.15
2023-07-03T15:17:29.863Z,346.70
2023-07-03T15:19:57.383Z,348.60
2023-07-03T15:22:24.804Z,348.42
2023-07-03T15:24:52.114Z,346.80
2023-07-03T15:27:19.707Z,384.02
2023-07-03T15:29:48.047Z,411.63
2023-07-03T15:32:15.333Z,348.65
2023-07-03T15:34:42.875Z,336.30
2023-07-03T15:37:10.189Z,418.95
2023-07-03T15:39:37.480Z,399.33
2023-07-03T15:42:04.874Z,338.88
2023-07-03T15:44:32.120Z,350.05
2023-07-03T15:46:59.542Z,353.88
2023-07-03T15:49:28.721Z,337.83
2023-07-03T15:51:57.717Z,358.30
2023-07-03T15:54:25.327Z,346.80
2023-07-03T15:56:53.334Z,322.58
2023-07-03T15:59:20.684Z,404.30
2023-07-03T16:01:50.780Z,344.70
2023-07-03T16:04:18.112Z,373.02
2023-07-03T16:06:45.672Z,304.08
2023-07-03T16:09:16.451Z,307.08
2023-07-03T16:11:43.778Z,383.38
2023-07-03T16:14:11.044Z,328.33
2023-07-03T16:16:38.421Z,359.75
2023-07-03T16:19:11.072Z,318.77
2023-07-03T16:21:38.477Z,318.77
2023-07-03T16:24:08.205Z,360.30
2023-07-03T16:26:35.636Z,294.35
2023-07-03T16:29:07.878Z,276.60
2023-07-03T16:31:35.428Z,261.60
2023-07-03T16:34:03.756Z,302.38
2023-07-03T16:36:31.924Z,302.27
2023-07-03T16:39:00.689Z,279.15
2023-07-03T16:41:29.564Z,329.60
2023-07-03T16:43:57.922Z,309.55
2023-07-03T16:46:26.298Z,338.15
2023-07-03T16:48:54.590Z,298.17
2023-07-03T16:54:50.381Z,318.98
2023-07-03T16:57:19.087Z,324.55
2023-07-03T16:59:46.613Z,328.10
2023-07-03T17:02:14.037Z,333.75
2023-07-03T17:04:41.620Z,264.65
2023-07-03T17:07:08.986Z,324.17
2023-07-03T17:09:36.296Z,314.23
2023-07-03T17:12:04.012Z,285.55
2023-07-03T17:14:32.561Z,306.20
2023-07-03T17:16:59.951Z,301.60
2023-07-03T17:19:27.357Z,315.15
2023-07-03T17:21:54.699Z,321.85
2023-07-03T17:24:21.919Z,293.10
2023-07-03T17:26:49.268Z,280.15
2023-07-03T17:29:16.687Z,333.75
2023-07-03T17:31:44.123Z,278.75
2023-07-03T17:34:11.541Z,303.38
2023-07-03T17:36:38.878Z,298.95
2023-07-03T17:39:06.152Z,231.45
2023-07-03T17:41:33.462Z,253.25
2023-07-03T17:44:00.917Z,332.25
2023-07-03T17:46:28.244Z,224.13
2023-07-03T17:48:55.693Z,250.75
2023-07-03T17:51:26.434Z,298.27
2023-07-03T17:53:54.094Z,253.50
2023-07-03T17:56:21.464Z,244.90
2023-07-03T17:58:49.338Z,252.63
2023-07-03T18:01:17.661Z,256.85
2023-07-03T18:03:45.091Z,285.30
2023-07-03T18:06:12.464Z,322.48
2023-07-03T18:08:39.767Z,346.35
2023-07-03T18:11:07.351Z,246.70
2023-07-03T18:13:34.962Z,337.77
2023-07-03T18:16:02.602Z,325.85
2023-07-03T18:18:30.159Z,284.80
2023-07-03T18:20:57.461Z,316.15
2023-07-03T18:23:24.808Z,314.30
2023-07-03T18:25:52.300Z,265.05
2023-07-03T18:28:19.870Z,260.67
2023-07-03T18:30:47.200Z,282.73
2023-07-03T18:33:14.550Z,271.08
2023-07-03T18:35:41.806Z,248.95
2023-07-03T18:38:09.119Z,253.65
2023-07-03T18:40:36.558Z,249.43
2023-07-03T18:43:03.870Z,245.35
2023-07-03T18:45:31.141Z,315.42
2023-07-03T18:47:58.513Z,260.60
2023-07-03T18:50:25.840Z,318.58
2023-07-03T18:52:53.188Z,257.30
2023-07-03T18:55:22.441Z,295.48
2023-07-03T18:57:49.904Z,300.88
2023-07-03T19:00:17.529Z,311.38
2023-07-03T19:02:48.634Z,289.67
2023-07-03T19:05:16.248Z,310.10
2023-07-03T19:07:45.870Z,258.85
2023-07-03T19:12:43.899Z,285.38
2023-07-03T19:15:11.284Z,351.42
2023-07-03T19:17:38.715Z,295.80
2023-07-03T19:20:07.525Z,321.02
2023-07-03T19:22:34.882Z,307.17
2023-07-03T19:25:02.192Z,304.83
2023-07-03T19:27:29.614Z,324.58
2023-07-03T19:29:57.026Z,366.52
2023-07-03T19:32:25.180Z,297.65
2023-07-03T19:34:53.149Z,289.38
2023-07-03T19:37:20.622Z,325.00
2023-07-03T19:39:48.069Z,295.23
2023-07-03T19:42:15.565Z,272.23
2023-07-03T19:44:43.080Z,264.00
2023-07-03T19:47:10.478Z,264.48
2023-07-03T19:49:37.822Z,284.58
2023-07-03T19:52:05.787Z,296.00
2023-07-03T19:54:33.094Z,283.63
2023-07-03T19:57:00.911Z,353.17
2023-07-03T19:59:30.003Z,330.90
2023-07-03T20:01:57.492Z,342.20
2023-07-03T20:04:25.493Z,324.73
2023-07-03T20:06:53.017Z,320.15
2023-07-03T20:09:20.344Z,324.58
2023-07-03T20:11:47.980Z,265.88
2023-07-03T20:14:15.357Z,284.10
2023-07-03T20:16:44.062Z,275.98
2023-07-03T20:19:12.316Z,358.67
2023-07-03T20:21:39.726Z,360.70
2023-07-03T20:24:07.273Z,340.00
2023-07-03T20:26:34.805Z,318.73
2023-07-03T20:29:03.055Z,386.90
2023-07-03T20:31:31.109Z,334.65
2023-07-03T20:33:58.757Z,318.75
2023-07-03T20:36:27.971Z,290.00
2023-07-03T20:38:58.238Z,375.90
2023-07-03T20:41:25.869Z,323.58
2023-07-03T20:43:53.343Z,339.77
2023-07-03T20:46:22.509Z,329.10
2023-07-03T20:48:55.668Z,306.67
2023-07-03T20:51:24.010Z,342.50
2023-07-03T20:53:53.160Z,413.95
2023-07-03T20:56:24.538Z,388.65
2023-07-03T20:58:53.035Z,341.67
2023-07-03T21:01:27.811Z,337.70
2023-07-03T21:03:56.178Z,314.30
2023-07-03T21:06:25.074Z,360.92
2023-07-03T21:08:52.844Z,367.73
2023-07-03T21:11:21.540Z,378.30
2023-07-03T21:13:50.448Z,329.30
2023-07-03T21:16:19.424Z,397.77
2023-07-03T21:18:47.094Z,375.38
2023-07-03T21:21:14.592Z,351.40
2023-07-03T21:23:42.303Z,383.23
2023-07-03T21:26:12.611Z,389.02
2023-07-03T21:28:40.325Z,419.48
2023-07-03T21:31:08.224Z,379.10
2023-07-03T21:33:35.660Z,364.50
2023-07-03T21:36:23.693Z,395.42
2023-07-03T21:38:52.485Z,411.02
2023-07-03T21:41:20.230Z,355.33
2023-07-03T21:43:51.786Z,380.02
2023-07-03T21:46:19.989Z,313.83
2023-07-03T21:48:49.725Z,334.73
2023-07-03T21:51:18.657Z,363.60
2023-07-03T21:53:49.375Z,353.95
2023-07-03T21:56:17.916Z,398.48
2023-07-03T21:58:45.678Z,356.48
2023-07-03T22:01:20.090Z,402.05
2023-07-03T22:03:47.519Z,437.70
2023-07-03T22:06:14.926Z,424.23
2023-07-03T22:08:42.280Z,401.20
2023-07-03T22:11:09.661Z,445.10
2023-07-03T22:13:36.972Z,465.40
2023-07-03T22:16:04.323Z,402.15
2023-07-03T22:18:31.583Z,400.05
2023-07-03T22:20:58.888Z,429.75
2023-07-03T22:23:32.098Z,383.98
2023-07-03T22:26:00.879Z,422.05
2023-07-03T22:28:28.678Z,364.92
2023-07-03T22:30:56.055Z,366.83
2023-07-03T22:33:24.206Z,338.23
2023-07-03T22:35:53.535Z,442.17
2023-07-03T22:38:21.435Z,418.73
2023-07-03T22:40:52.442Z,420.95
2023-07-03T22:43:20.531Z,445.85
2023-07-03T22:45:48.478Z,409.45
2023-07-03T22:48:15.975Z,419.35
2023-07-03T22:50:43.990Z,425.50
2023-07-03T22:53:11.592Z,453.27
2023-07-03T22:55:41.118Z,431.80
2023-07-03T22:58:10.129Z,438.77
2023-07-03T23:00:40.773Z,426.42
2023-07-03T23:03:08.376Z,438.85
2023-07-03T23:05:40.493Z,476.40
2023-07-03T23:08:07.841Z,497.75
2023-07-03T23:10:35.083Z,502.55
2023-07-03T23:13:02.434Z,516.22
2023-07-03T23:15:29.776Z,495.58
2023-07-03T23:17:57.825Z,546.22
2023-07-03T23:20:26.508Z,422.73
2023-07-03T23:22:57.062Z,438.92
2023-07-03T23:25:24.420Z,431.58
2023-07-03T23:27:51.682Z,429.63
2023-07-03T23:30:19.168Z,438.10
2023-07-03T23:32:46.570Z,403.70
2023-07-03T23:35:13.959Z,382.88
2023-07-03T23:37:44.831Z,404.63
2023-07-03T23:40:12.435Z,475.50
2023-07-03T23:42:39.999Z,424.27
2023-07-03T23:45:09.092Z,509.83
2023-07-03T23:47:36.488Z,453.95
2023-07-03T23:50:04.566Z,407.23
2023-07-03T23:52:32.011Z,483.13
2023-07-03T23:54:59.291Z,418.60
2023-07-03T23:57:26.748Z,478.55
2023-07-03T23:59:54.090Z,411.67
